createdAt,value
2023-01-29T00:02:24.252Z,14.18
2023-01-29T00:05:28.520Z,15.10
2023-01-29T00:08:33.948Z,20.98
2023-01-29T00:11:36.795Z,22.83
2023-01-29T00:14:39.337Z,18.63
2023-01-29T00:17:42.109Z,17.83
2023-01-29T00:20:45.176Z,9.52
2023-01-29T00:23:48.677Z,10.88
2023-01-29T00:26:51.298Z,13.10
2023-01-29T00:30:12.062Z,10.80
2023-01-29T00:33:14.945Z,10.32
2023-01-29T00:36:18.890Z,13.32
2023-01-29T00:39:31.455Z,12.35
2023-01-29T00:42:58.115Z,7.72
2023-01-29T00:46:00.665Z,10.33
2023-01-29T00:49:05.216Z,9.48
2023-01-29T00:52:26.288Z,13.15
2023-01-29T00:55:29.148Z,8.57
2023-01-29T00:58:36.622Z,10.20
2023-01-29T01:01:57.917Z,11.03
2023-01-29T01:05:03.199Z,9.13
2023-01-29T01:08:26.183Z,7.43
2023-01-29T01:11:28.815Z,10.98
2023-01-29T01:14:31.604Z,7.85
2023-01-29T01:17:34.392Z,9.87
2023-01-29T01:20:37.400Z,9.15
2023-01-29T01:23:40.129Z,8.10
2023-01-29T01:26:43.061Z,5.47
2023-01-29T01:29:46.851Z,7.65
2023-01-29T01:32:50.311Z,7.57
2023-01-29T01:35:53.106Z,8.30
2023-01-29T01:38:56.855Z,7.07
2023-01-29T01:41:59.380Z,5.72
2023-01-29T01:45:08.073Z,5.43
2023-01-29T01:48:18.751Z,8.53
2023-01-29T01:51:23.043Z,7.20
2023-01-29T01:54:28.194Z,11.12
2023-01-29T01:57:31.426Z,8.93
2023-01-29T02:00:34.331Z,10.20
2023-01-29T02:04:00.095Z,11.33
2023-01-29T02:07:23.358Z,10.23
2023-01-29T02:10:27.924Z,10.82
2023-01-29T02:13:31.358Z,5.62
2023-01-29T02:16:35.401Z,8.68
2023-01-29T02:19:48.612Z,11.43
2023-01-29T02:22:59.272Z,5.68
2023-01-29T02:26:20.819Z,7.95
2023-01-29T02:29:34.651Z,9.93
2023-01-29T02:32:54.767Z,8.15
2023-01-29T02:36:19.368Z,8.47
2023-01-29T02:39:45.270Z,10.18
2023-01-29T02:43:11.032Z,10.05
2023-01-29T02:46:34.917Z,5.60
2023-01-29T02:49:50.290Z,6.15
2023-01-29T02:53:15.369Z,3.63
2023-01-29T02:56:22.932Z,5.20
2023-01-29T02:59:32.699Z,8.07
2023-01-29T03:02:41.635Z,7.05
2023-01-29T03:06:06.534Z,6.10
2023-01-29T03:09:18.031Z,8.27
2023-01-29T03:12:34.066Z,4.70
2023-01-29T03:15:42.495Z,5.07
2023-01-29T03:18:51.068Z,8.10
2023-01-29T03:21:59.957Z,5.87
2023-01-29T03:25:23.537Z,5.87
2023-01-29T03:28:47.014Z,7.47
2023-01-29T03:32:06.760Z,5.57
2023-01-29T03:35:11.113Z,5.37
2023-01-29T03:38:14.741Z,5.23
2023-01-29T03:41:25.698Z,5.83
2023-01-29T03:44:58.067Z,9.00
2023-01-29T03:48:05.856Z,7.93
2023-01-29T03:51:17.764Z,5.57
2023-01-29T03:54:28.375Z,8.07
2023-01-29T03:57:42.885Z,6.80
2023-01-29T04:00:57.816Z,6.62
2023-01-29T04:04:27.171Z,6.37
2023-01-29T04:07:33.524Z,10.75
2023-01-29T04:10:39.261Z,10.83
2023-01-29T04:13:42.636Z,13.23
2023-01-29T04:16:50.317Z,11.57
2023-01-29T04:19:54.031Z,6.68
2023-01-29T04:22:56.944Z,11.40
2023-01-29T04:26:29.247Z,10.60
2023-01-29T04:29:43.530Z,11.87
2023-01-29T04:33:05.233Z,10.73
2023-01-29T04:36:20.449Z,11.10
2023-01-29T04:39:33.117Z,11.43
2023-01-29T04:43:22.508Z,13.57
2023-01-29T04:47:05.194Z,11.10
2023-01-29T04:50:24.517Z,14.30
2023-01-29T04:53:37.334Z,14.50
2023-01-29T04:56:54.729Z,12.48
2023-01-29T05:00:04.049Z,12.10
2023-01-29T05:03:09.743Z,13.57
2023-01-29T05:06:12.574Z,14.02
2023-01-29T05:09:16.623Z,14.87
2023-01-29T05:12:19.654Z,11.65
2023-01-29T05:15:26.834Z,12.07
2023-01-29T05:18:30.151Z,9.07
2023-01-29T05:21:33.112Z,11.38
2023-01-29T05:24:37.295Z,8.65
2023-01-29T05:27:58.689Z,8.73
2023-01-29T05:31:01.458Z,6.60
2023-01-29T05:34:04.357Z,10.70
2023-01-29T05:37:07.214Z,8.02
2023-01-29T05:40:10.750Z,8.50
2023-01-29T05:43:24.168Z,5.72
2023-01-29T05:46:27.054Z,5.40
2023-01-29T05:49:29.822Z,8.13
2023-01-29T05:52:32.698Z,8.13
2023-01-29T05:55:35.263Z,9.32
2023-01-29T05:58:39.990Z,8.82
2023-01-29T06:01:42.869Z,3.70
2023-01-29T06:04:45.756Z,5.70
2023-01-29T06:07:48.323Z,8.45
2023-01-29T06:10:51.171Z,5.18
2023-01-29T06:13:53.880Z,6.93
2023-01-29T06:16:56.689Z,9.63
2023-01-29T06:19:59.358Z,6.40
2023-01-29T06:23:02.267Z,7.30
2023-01-29T06:26:07.315Z,7.68
2023-01-29T06:29:10.295Z,7.12
2023-01-29T06:32:13.098Z,5.90
2023-01-29T06:35:18.083Z,7.73
2023-01-29T06:38:20.754Z,4.55
2023-01-29T06:41:25.761Z,3.87
2023-01-29T06:44:28.541Z,5.57
2023-01-29T06:47:31.478Z,4.77
2023-01-29T06:50:34.119Z,6.33
2023-01-29T06:53:38.397Z,7.12
2023-01-29T06:56:40.972Z,8.88
2023-01-29T06:59:43.791Z,4.60
2023-01-29T07:02:49.636Z,8.13
2023-01-29T07:05:53.049Z,5.23
2023-01-29T07:08:56.120Z,5.93
2023-01-29T07:11:58.994Z,5.95
2023-01-29T07:15:01.508Z,9.93
2023-01-29T07:18:12.042Z,4.70
2023-01-29T07:21:14.995Z,4.70
2023-01-29T07:24:17.866Z,3.65
2023-01-29T07:27:20.450Z,8.13
2023-01-29T07:30:23.331Z,3.05
2023-01-29T07:33:26.228Z,7.13
2023-01-29T07:36:29.863Z,7.43
2023-01-29T07:39:33.023Z,5.30
2023-01-29T07:42:36.373Z,4.80
2023-01-29T07:45:40.001Z,4.22
2023-01-29T07:48:42.970Z,4.63
2023-01-29T07:51:45.518Z,4.67
2023-01-29T07:54:48.592Z,10.95
2023-01-29T07:58:02.975Z,4.12
2023-01-29T08:01:10.329Z,14.45
2023-01-29T08:04:13.227Z,8.40
2023-01-29T08:07:15.827Z,7.93
2023-01-29T08:10:19.410Z,7.43
2023-01-29T08:13:22.281Z,3.47
2023-01-29T08:16:25.124Z,9.18
2023-01-29T08:19:27.824Z,8.37
2023-01-29T08:22:30.682Z,7.33
2023-01-29T08:25:34.146Z,7.50
2023-01-29T08:28:38.852Z,3.47
2023-01-29T08:31:41.515Z,7.65
2023-01-29T08:34:44.843Z,6.13
2023-01-29T08:37:59.501Z,6.90
2023-01-29T08:41:02.699Z,6.25
2023-01-29T08:44:05.538Z,6.47
2023-01-29T08:47:08.434Z,6.57
2023-01-29T08:50:11.659Z,6.47
2023-01-29T08:53:15.074Z,6.67
2023-01-29T08:56:17.703Z,7.22
2023-01-29T08:59:22.913Z,7.97
2023-01-29T09:02:25.646Z,4.37
2023-01-29T09:05:28.940Z,6.33
2023-01-29T09:08:31.514Z,4.30
2023-01-29T09:11:34.363Z,7.20
2023-01-29T09:14:37.104Z,5.93
2023-01-29T09:17:41.072Z,5.85
2023-01-29T09:20:43.645Z,9.27
2023-01-29T09:23:46.573Z,7.00
2023-01-29T09:26:49.843Z,4.85
2023-01-29T09:29:52.760Z,6.55
2023-01-29T09:32:55.473Z,5.85
2023-01-29T09:35:58.489Z,4.30
2023-01-29T09:39:01.086Z,6.40
2023-01-29T09:42:12.580Z,4.97
2023-01-29T09:45:21.344Z,8.30
2023-01-29T09:48:28.905Z,6.18
2023-01-29T09:51:35.724Z,3.93
2023-01-29T09:54:53.820Z,8.03
2023-01-29T10:01:09.062Z,7.22
2023-01-29T10:04:45.152Z,7.20
2023-01-29T10:08:06.532Z,5.43
2023-01-29T10:11:17.472Z,6.07
2023-01-29T10:14:55.544Z,9.30
2023-01-29T10:18:17.047Z,7.85
2023-01-29T10:21:31.568Z,6.00
2023-01-29T10:24:39.347Z,5.83
2023-01-29T10:27:48.170Z,3.80
2023-01-29T10:30:58.656Z,10.57
2023-01-29T10:34:04.880Z,7.50
2023-01-29T10:37:24.426Z,7.78
2023-01-29T10:40:33.144Z,10.93
2023-01-29T10:44:06.844Z,6.67
2023-01-29T10:47:24.676Z,7.00
2023-01-29T10:50:39.589Z,7.78
2023-01-29T10:54:21.286Z,8.18
2023-01-29T10:57:56.654Z,7.30
2023-01-29T11:01:00.648Z,9.50
2023-01-29T11:04:04.915Z,9.43
2023-01-29T11:07:08.119Z,8.32
2023-01-29T11:10:15.087Z,6.22
2023-01-29T11:13:18.311Z,9.00
2023-01-29T11:16:21.387Z,8.90
2023-01-29T11:19:38.314Z,8.60
2023-01-29T11:22:54.060Z,8.15
2023-01-29T11:25:58.043Z,7.87
2023-01-29T11:29:00.894Z,9.73
2023-01-29T11:32:05.926Z,7.10
2023-01-29T11:35:14.764Z,10.25
2023-01-29T11:38:28.485Z,9.00
2023-01-29T11:41:42.978Z,10.25
2023-01-29T11:44:45.572Z,6.23
2023-01-29T11:47:54.268Z,9.67
2023-01-29T11:51:00.808Z,8.32
2023-01-29T11:54:04.725Z,11.63
2023-01-29T11:57:20.170Z,9.27
2023-01-29T12:00:25.413Z,7.90
2023-01-29T12:03:39.687Z,10.00
2023-01-29T12:06:42.900Z,8.40
2023-01-29T12:09:54.823Z,7.22
2023-01-29T12:13:09.838Z,4.62
2023-01-29T12:16:29.706Z,8.07
2023-01-29T12:19:50.124Z,8.70
2023-01-29T12:23:08.830Z,8.02
2023-01-29T12:26:16.192Z,9.07
2023-01-29T12:29:38.077Z,6.80
2023-01-29T12:32:49.948Z,11.00
2023-01-29T12:36:09.251Z,8.57
2023-01-29T12:39:16.760Z,6.78
2023-01-29T12:42:22.724Z,12.82
2023-01-29T12:45:26.631Z,7.20
2023-01-29T12:48:39.103Z,7.93
2023-01-29T12:51:49.088Z,8.20
2023-01-29T12:55:01.843Z,9.27
2023-01-29T12:58:09.959Z,14.48
2023-01-29T13:01:16.895Z,27.60
2023-01-29T13:04:40.517Z,10.13
2023-01-29T13:07:47.916Z,12.43
2023-01-29T13:10:53.183Z,10.73
2023-01-29T13:14:23.259Z,10.45
2023-01-29T13:17:43.342Z,9.40
2023-01-29T13:20:48.418Z,11.77
2023-01-29T13:24:00.598Z,9.27
2023-01-29T13:27:04.045Z,11.05
2023-01-29T13:30:08.014Z,10.25
2023-01-29T13:33:23.687Z,8.98
2023-01-29T13:36:29.192Z,9.80
2023-01-29T13:39:37.487Z,9.20
2023-01-29T13:42:43.820Z,7.78
2023-01-29T13:45:48.076Z,8.88
2023-01-29T13:48:52.401Z,8.02
2023-01-29T13:51:55.549Z,9.07
2023-01-29T13:55:04.916Z,7.73
2023-01-29T13:58:14.173Z,8.07
2023-01-29T14:01:21.170Z,4.75
2023-01-29T14:04:26.880Z,4.85
2023-01-29T14:07:49.974Z,7.40
2023-01-29T14:11:17.931Z,9.07
2023-01-29T14:14:48.693Z,9.88
2023-01-29T14:17:55.711Z,11.45
2023-01-29T14:21:17.850Z,6.95
2023-01-29T14:24:22.535Z,8.37
2023-01-29T14:27:25.865Z,9.87
2023-01-29T14:30:33.071Z,12.20
2023-01-29T14:33:38.537Z,7.28
2023-01-29T14:36:42.481Z,6.82
2023-01-29T14:39:50.225Z,10.27
2023-01-29T14:43:05.286Z,9.20
2023-01-29T14:46:42.345Z,14.55
2023-01-29T14:49:56.643Z,9.35
2023-01-29T14:53:23.193Z,11.52
2023-01-29T14:56:37.472Z,3.30
2023-01-29T15:00:01.025Z,14.13
2023-01-29T15:03:17.269Z,11.50
2023-01-29T15:06:44.848Z,7.10
2023-01-29T15:10:22.007Z,10.63
2023-01-29T15:13:33.111Z,9.67
2023-01-29T15:16:45.213Z,13.63
2023-01-29T15:19:48.972Z,11.90
2023-01-29T15:22:51.955Z,12.07
2023-01-29T15:25:57.625Z,10.63
2023-01-29T15:29:04.590Z,11.03
2023-01-29T15:32:08.237Z,6.50
2023-01-29T15:35:34.258Z,11.23
2023-01-29T15:38:36.875Z,12.98
2023-01-29T15:41:39.912Z,8.60
2023-01-29T15:44:46.537Z,10.03
2023-01-29T15:47:49.936Z,6.83
2023-01-29T15:50:54.439Z,6.28
2023-01-29T15:53:59.200Z,10.73
2023-01-29T15:57:02.821Z,9.15
2023-01-29T16:00:08.151Z,10.73
2023-01-29T16:03:15.517Z,9.67
2023-01-29T16:06:18.978Z,4.37
2023-01-29T16:09:23.961Z,5.05
2023-01-29T16:12:28.731Z,5.43
2023-01-29T16:15:33.073Z,12.03
2023-01-29T16:18:47.746Z,8.07
2023-01-29T16:22:00.193Z,8.82
2023-01-29T16:25:11.354Z,5.97
2023-01-29T16:28:14.574Z,4.20
2023-01-29T16:31:26.253Z,6.47
2023-01-29T16:34:40.353Z,10.13
2023-01-29T16:37:48.113Z,3.37
2023-01-29T16:41:05.127Z,6.93
2023-01-29T16:44:17.279Z,15.25
2023-01-29T16:47:38.906Z,14.10
2023-01-29T16:50:54.227Z,8.13
2023-01-29T16:54:11.882Z,5.70
2023-01-29T16:57:18.365Z,4.55
2023-01-29T17:00:23.097Z,5.07
2023-01-29T17:03:27.452Z,7.20
2023-01-29T17:06:31.981Z,8.87
2023-01-29T17:09:37.507Z,15.68
2023-01-29T17:12:40.574Z,12.52
2023-01-29T17:15:43.779Z,13.82
2023-01-29T17:18:47.743Z,9.83
2023-01-29T17:21:51.332Z,5.97
2023-01-29T17:24:54.380Z,12.65
2023-01-29T17:28:00.736Z,9.43
2023-01-29T17:31:06.505Z,4.55
2023-01-29T17:34:14.771Z,13.63
2023-01-29T17:37:17.809Z,22.93
2023-01-29T17:40:37.788Z,33.20
2023-01-29T17:43:40.663Z,25.15
2023-01-29T17:46:43.839Z,35.05
2023-01-29T17:49:46.986Z,28.07
2023-01-29T17:52:50.789Z,27.30
2023-01-29T17:55:53.653Z,22.98
2023-01-29T17:58:56.800Z,25.80
2023-01-29T18:01:59.891Z,26.23
2023-01-29T18:05:03.035Z,20.93
2023-01-29T18:08:19.900Z,36.30
2023-01-29T18:11:23.591Z,39.13
2023-01-29T18:14:26.388Z,20.27
2023-01-29T18:17:29.521Z,13.02
2023-01-29T18:20:36.741Z,25.60
2023-01-29T18:23:40.532Z,31.47
2023-01-29T18:26:43.595Z,27.20
2023-01-29T18:29:46.706Z,48.47
2023-01-29T18:32:50.323Z,62.28
2023-01-29T18:35:55.192Z,73.90
2023-01-29T18:38:58.266Z,62.17
2023-01-29T18:42:01.453Z,57.17
2023-01-29T18:45:04.617Z,32.53
2023-01-29T18:48:08.428Z,24.17
2023-01-29T18:51:11.692Z,24.83
2023-01-29T18:54:14.817Z,72.53
2023-01-29T18:58:26.869Z,37.75
2023-01-29T19:00:40.916Z,40.30
2023-01-29T19:03:43.735Z,39.30
2023-01-29T19:06:46.538Z,30.33
2023-01-29T19:09:50.643Z,39.03
2023-01-29T19:12:53.746Z,29.52
2023-01-29T19:15:56.795Z,26.15
2023-01-29T19:19:00.191Z,26.35
2023-01-29T19:22:04.446Z,24.00
2023-01-29T19:25:08.254Z,22.17
2023-01-29T19:28:11.466Z,46.05
2023-01-29T19:31:14.744Z,114.28
2023-01-29T19:34:17.976Z,56.15
2023-01-29T19:37:21.373Z,36.30
2023-01-29T19:40:24.392Z,72.90
2023-01-29T19:43:33.413Z,45.22
2023-01-29T19:46:36.600Z,34.08
2023-01-29T19:49:40.691Z,52.28
2023-01-29T19:52:52.027Z,64.60
2023-01-29T19:56:09.824Z,44.90
2023-01-29T19:59:13.220Z,39.50
2023-01-29T20:02:16.519Z,53.13
2023-01-29T20:05:20.587Z,30.92
2023-01-29T20:08:24.061Z,33.80
2023-01-29T20:11:27.128Z,34.27
2023-01-29T20:14:29.852Z,33.45
2023-01-29T20:17:33.035Z,38.80
2023-01-29T20:20:39.706Z,38.35
2023-01-29T20:23:45.668Z,45.47
2023-01-29T20:26:49.301Z,30.77
2023-01-29T20:29:52.887Z,34.13
2023-01-29T20:32:55.668Z,65.32
2023-01-29T20:36:01.151Z,54.28
2023-01-29T20:39:04.452Z,49.37
2023-01-29T20:42:07.538Z,42.73
2023-01-29T20:45:10.505Z,32.88
2023-01-29T20:48:13.935Z,34.95
2023-01-29T20:51:17.795Z,35.67
2023-01-29T20:54:21.007Z,29.60
2023-01-29T20:57:23.937Z,25.37
2023-01-29T21:00:26.928Z,23.80
2023-01-29T21:03:29.928Z,23.62
2023-01-29T21:06:32.961Z,20.98
2023-01-29T21:09:35.978Z,17.93
2023-01-29T21:12:39.085Z,23.67
2023-01-29T21:15:43.001Z,21.98
2023-01-29T21:18:46.008Z,21.90
2023-01-29T21:21:49.062Z,20.37
2023-01-29T21:24:52.299Z,19.30
2023-01-29T21:27:54.943Z,17.50
2023-01-29T21:31:09.502Z,22.90
2023-01-29T21:34:12.380Z,28.65
2023-01-29T21:37:15.230Z,24.55
2023-01-29T21:40:18.356Z,22.60
2023-01-29T21:43:21.372Z,15.47
2023-01-29T21:46:23.989Z,18.40
2023-01-29T21:49:27.879Z,21.23
2023-01-29T21:52:30.513Z,17.17
2023-01-29T21:55:34.016Z,16.87
2023-01-29T21:58:37.148Z,16.80
2023-01-29T22:01:40.143Z,16.42
2023-01-29T22:04:43.154Z,15.55
2023-01-29T22:07:45.783Z,17.10
2023-01-29T22:10:49.027Z,20.33
2023-01-29T22:13:51.731Z,19.93
2023-01-29T22:16:54.744Z,18.10
2023-01-29T22:19:57.307Z,17.17
2023-01-29T22:23:00.735Z,16.20
2023-01-29T22:26:05.214Z,16.57
2023-01-29T22:29:08.148Z,18.77
2023-01-29T22:32:11.664Z,15.18
2023-01-29T22:35:14.606Z,14.93
2023-01-29T22:38:17.297Z,17.10
2023-01-29T22:41:20.087Z,15.00
2023-01-29T22:44:22.917Z,15.20
2023-01-29T22:47:25.858Z,12.68
2023-01-29T22:50:28.452Z,18.85
2023-01-29T22:53:31.647Z,14.75
2023-01-29T22:56:34.274Z,13.17
2023-01-29T22:59:37.527Z,16.12
2023-01-29T23:02:40.193Z,16.77
2023-01-29T23:05:43.853Z,14.35
2023-01-29T23:08:46.432Z,16.60
2023-01-29T23:11:49.358Z,14.60
2023-01-29T23:14:51.946Z,17.30
2023-01-29T23:17:54.788Z,18.35
2023-01-29T23:20:58.003Z,17.42
2023-01-29T23:24:01.407Z,17.35
2023-01-29T23:27:16.533Z,17.83
2023-01-29T23:30:19.708Z,29.00
2023-01-29T23:33:22.609Z,16.73
2023-01-29T23:36:25.469Z,14.55
2023-01-29T23:39:28.000Z,22.70
2023-01-29T23:42:30.801Z,19.90
2023-01-29T23:45:33.546Z,18.27
2023-01-29T23:48:36.657Z,17.80
2023-01-29T23:51:39.350Z,17.85
2023-01-29T23:54:42.309Z,15.80
2023-01-29T23:57:44.939Z,19.10
